createdAt,value
2017-09-07T00:00:08.149Z,0
2017-09-07T00:01:03.394Z,0
2017-09-07T00:01:57.276Z,0
2017-09-07T00:02:45.220Z,0
2017-09-07T00:03:34.281Z,0
2017-09-07T00:04:29.283Z,0
2017-09-07T00:05:23.372Z,0
2017-09-07T00:06:12.639Z,0
2017-09-07T00:07:01.481Z,0
2017-09-07T00:07:49.504Z,0
2017-09-07T00:08:37.834Z,0
2017-09-07T00:09:26.574Z,0
2017-09-07T00:10:21.548Z,0
2017-09-07T00:11:21.871Z,0
2017-09-07T00:12:21.708Z,0
2017-09-07T00:13:15.681Z,0
2017-09-07T00:14:15.705Z,0
2017-09-07T00:15:10.770Z,0
2017-09-07T00:16:05.765Z,0
2017-09-07T00:17:06.882Z,0
2017-09-07T00:17:54.848Z,0
2017-09-07T00:18:44.383Z,0
2017-09-07T00:19:31.949Z,0
2017-09-07T00:20:19.956Z,0
2017-09-07T00:21:14.120Z,0
2017-09-07T00:22:09.293Z,0
2017-09-07T00:23:03.103Z,0
2017-09-07T00:23:57.152Z,0
2017-09-07T00:24:52.185Z,0
2017-09-07T00:25:52.217Z,0
2017-09-07T00:26:52.269Z,0
2017-09-07T00:27:46.271Z,0
2017-09-07T00:28:46.391Z,0
2017-09-07T00:29:41.328Z,0
2017-09-07T00:30:35.532Z,0
2017-09-07T00:31:23.934Z,0
2017-09-07T00:32:17.481Z,0
2017-09-07T00:33:11.525Z,0
2017-09-07T00:34:12.168Z,0
2017-09-07T00:35:07.091Z,0
2017-09-07T00:36:00.570Z,0
2017-09-07T00:36:54.824Z,0
2017-09-07T00:37:54.690Z,0
2017-09-07T00:38:48.760Z,0
2017-09-07T00:39:42.806Z,0
2017-09-07T00:40:36.754Z,0
2017-09-07T00:41:36.766Z,0
2017-09-07T00:42:25.880Z,0
2017-09-07T00:43:21.078Z,0
2017-09-07T00:44:20.941Z,0
2017-09-07T00:45:15.976Z,0
2017-09-07T00:46:10.947Z,0
2017-09-07T00:46:59.022Z,0
2017-09-07T00:47:53.033Z,0
2017-09-07T00:48:41.099Z,0
2017-09-07T00:49:29.155Z,0
2017-09-07T00:50:18.156Z,0
2017-09-07T00:51:06.232Z,0
2017-09-07T00:51:54.264Z,0
2017-09-07T00:52:43.353Z,0
2017-09-07T00:53:43.639Z,0
2017-09-07T00:54:32.434Z,0
2017-09-07T00:55:21.996Z,0
2017-09-07T00:56:21.439Z,0
2017-09-07T00:57:10.925Z,0
2017-09-07T00:58:05.827Z,0
2017-09-07T00:58:59.603Z,0
2017-09-07T01:00:00.617Z,0
2017-09-07T01:00:55.648Z,0
2017-09-07T01:01:49.688Z,0
2017-09-07T01:02:49.710Z,0
2017-09-07T01:03:43.743Z,0
2017-09-07T01:04:43.776Z,0
2017-09-07T01:05:37.836Z,0
2017-09-07T01:06:31.851Z,0
2017-09-07T01:07:32.085Z,0
2017-09-07T01:08:26.443Z,0
2017-09-07T01:09:19.920Z,0
2017-09-07T01:10:14.962Z,0
2017-09-07T01:11:14.993Z,0
2017-09-07T01:12:09.212Z,0
2017-09-07T01:13:09.073Z,0
2017-09-07T01:13:58.267Z,0
2017-09-07T01:14:52.428Z,0
2017-09-07T01:15:47.162Z,0
2017-09-07T01:16:41.285Z,0
2017-09-07T01:17:41.516Z,0
2017-09-07T01:18:35.687Z,0
2017-09-07T01:19:29.332Z,0
2017-09-07T01:20:23.339Z,0
2017-09-07T01:21:23.450Z,0
2017-09-07T01:22:18.452Z,0
2017-09-07T01:23:13.481Z,0
2017-09-07T01:24:14.034Z,0
2017-09-07T01:25:07.552Z,0
2017-09-07T01:26:08.574Z,0
2017-09-07T01:26:56.703Z,0
2017-09-07T01:27:56.875Z,0
2017-09-07T01:28:51.083Z,0
2017-09-07T01:29:38.729Z,0
2017-09-07T01:30:27.760Z,0
2017-09-07T01:31:27.831Z,0
2017-09-07T01:32:16.866Z,0
2017-09-07T01:33:05.972Z,0
2017-09-07T01:33:55.374Z,0
2017-09-07T01:34:48.948Z,0
2017-09-07T01:35:43.006Z,0
2017-09-07T01:36:37.032Z,0
2017-09-07T01:37:31.084Z,0
2017-09-07T01:38:31.550Z,0
2017-09-07T01:39:20.651Z,0
2017-09-07T01:40:08.168Z,0
2017-09-07T01:41:08.231Z,0
2017-09-07T01:41:56.223Z,0
2017-09-07T01:42:50.272Z,0
2017-09-07T01:43:44.805Z,0
2017-09-07T01:44:39.360Z,0
2017-09-07T01:45:33.415Z,0
2017-09-07T01:46:27.427Z,0
2017-09-07T01:47:22.003Z,0
2017-09-07T01:48:22.540Z,0
2017-09-07T01:49:10.953Z,0
2017-09-07T01:50:04.556Z,0
2017-09-07T01:50:53.623Z,0
2017-09-07T01:51:48.630Z,0
2017-09-07T01:52:42.690Z,0
2017-09-07T01:53:32.153Z,0
2017-09-07T01:54:25.774Z,0
2017-09-07T01:55:13.830Z,0
2017-09-07T01:56:08.862Z,0
2017-09-07T01:57:03.868Z,0
2017-09-07T01:58:03.950Z,0
2017-09-07T01:58:58.366Z,0
2017-09-07T01:59:58.982Z,0
2017-09-07T02:00:53.002Z,0
2017-09-07T02:01:53.049Z,0
2017-09-07T02:02:48.091Z,0
2017-09-07T02:03:37.185Z,0
2017-09-07T02:04:26.151Z,0
2017-09-07T02:05:20.247Z,0
2017-09-07T02:06:09.227Z,0
2017-09-07T02:07:09.266Z,0
2017-09-07T02:07:57.366Z,0
2017-09-07T02:08:51.631Z,0
2017-09-07T02:09:45.445Z,0
2017-09-07T02:10:34.466Z,0
2017-09-07T02:11:29.478Z,0
2017-09-07T02:12:23.469Z,0
2017-09-07T02:13:12.573Z,0
2017-09-07T02:14:06.563Z,0
2017-09-07T02:15:06.698Z,0
2017-09-07T02:15:55.654Z,0
2017-09-07T02:16:49.740Z,0
2017-09-07T02:17:44.787Z,0
2017-09-07T02:18:44.769Z,0
2017-09-07T02:19:33.977Z,0
2017-09-07T02:20:27.834Z,0
2017-09-07T02:21:15.924Z,0
2017-09-07T02:22:03.963Z,0
2017-09-07T02:22:57.987Z,0
2017-09-07T02:23:47.448Z,0
2017-09-07T02:24:36.027Z,0
2017-09-07T02:25:30.093Z,0
2017-09-07T02:26:18.164Z,0
2017-09-07T02:27:07.140Z,0
2017-09-07T02:27:55.197Z,0
2017-09-07T02:28:44.293Z,0
2017-09-07T02:29:44.255Z,0
2017-09-07T02:30:38.333Z,0
2017-09-07T02:31:32.385Z,0
2017-09-07T02:32:27.419Z,0
2017-09-07T02:33:21.401Z,0
2017-09-07T02:34:22.495Z,0
2017-09-07T02:35:22.463Z,0
2017-09-07T02:36:11.666Z,0
2017-09-07T02:37:05.901Z,0
2017-09-07T02:38:00.597Z,0
2017-09-07T02:38:55.261Z,0
2017-09-07T02:39:55.646Z,0
2017-09-07T02:40:50.912Z,0
2017-09-07T02:41:50.940Z,0
2017-09-07T02:42:39.756Z,0
2017-09-07T02:43:41.278Z,0
2017-09-07T02:44:41.265Z,0
2017-09-07T02:45:40.907Z,0
2017-09-07T02:46:34.942Z,0
2017-09-07T02:47:34.962Z,0
2017-09-07T02:48:30.588Z,0
2017-09-07T02:49:25.027Z,0
2017-09-07T02:50:14.046Z,0
2017-09-07T02:51:02.128Z,0
2017-09-07T02:51:50.155Z,0
2017-09-07T02:52:38.663Z,0
2017-09-07T02:53:26.282Z,0
2017-09-07T02:54:21.288Z,0
2017-09-07T02:55:15.716Z,0
2017-09-07T02:56:04.348Z,0
2017-09-07T02:56:58.409Z,0
2017-09-07T02:57:53.723Z,0
2017-09-07T02:58:47.775Z,0
2017-09-07T02:59:47.949Z,0
2017-09-07T03:00:42.518Z,0
2017-09-07T03:01:36.543Z,0
2017-09-07T03:02:30.573Z,0
2017-09-07T03:03:24.657Z,0
2017-09-07T03:04:18.644Z,0
2017-09-07T03:05:19.149Z,0
2017-09-07T03:06:13.741Z,0
2017-09-07T03:07:13.749Z,0
2017-09-07T03:08:07.767Z,0
2017-09-07T03:09:07.849Z,0
2017-09-07T03:10:02.849Z,0
2017-09-07T03:10:57.945Z,0
2017-09-07T03:11:57.921Z,0
2017-09-07T03:12:52.951Z,0
2017-09-07T03:13:46.993Z,0
2017-09-07T03:14:42.062Z,0
2017-09-07T03:15:31.042Z,0
2017-09-07T03:16:26.166Z,0
2017-09-07T03:17:14.500Z,0
2017-09-07T03:18:02.177Z,0
2017-09-07T03:18:50.227Z,0
2017-09-07T03:19:38.222Z,0
2017-09-07T03:20:39.323Z,0
2017-09-07T03:21:40.361Z,0
2017-09-07T03:22:34.477Z,0
2017-09-07T03:23:28.618Z,0
2017-09-07T03:24:22.444Z,0
2017-09-07T03:25:11.452Z,0
2017-09-07T03:26:05.471Z,0
2017-09-07T03:26:59.573Z,0
2017-09-07T03:27:59.561Z,0
2017-09-07T03:28:48.633Z,0
2017-09-07T03:29:36.723Z,0
2017-09-07T03:30:25.732Z,0
2017-09-07T03:31:13.787Z,0
2017-09-07T03:32:01.778Z,0
2017-09-07T03:32:50.848Z,0
2017-09-07T03:33:39.261Z,0
2017-09-07T03:34:27.957Z,0
2017-09-07T03:35:21.964Z,0
2017-09-07T03:36:16.944Z,0
2017-09-07T03:37:17.020Z,0
2017-09-07T03:38:11.174Z,0
2017-09-07T03:39:00.103Z,0
2017-09-07T03:39:55.164Z,0
2017-09-07T03:40:50.702Z,0
2017-09-07T03:41:38.239Z,0
2017-09-07T03:42:26.270Z,0
2017-09-07T03:43:21.264Z,0
2017-09-07T03:44:16.991Z,0
2017-09-07T03:45:17.396Z,0
2017-09-07T03:46:11.373Z,0
2017-09-07T03:47:05.442Z,0
2017-09-07T03:47:53.437Z,0
2017-09-07T03:48:41.468Z,0
2017-09-07T03:49:36.569Z,0
2017-09-07T03:50:37.059Z,0
2017-09-07T03:51:26.018Z,0
2017-09-07T03:52:25.631Z,0
2017-09-07T03:53:21.044Z,0
2017-09-07T03:54:20.710Z,0
2017-09-07T03:55:15.853Z,0
2017-09-07T03:56:10.752Z,0
2017-09-07T03:57:10.830Z,0
2017-09-07T03:58:05.830Z,0
2017-09-07T03:58:59.875Z,0
2017-09-07T03:59:59.918Z,0
2017-09-07T04:00:59.951Z,0
2017-09-07T04:01:54.977Z,0
2017-09-07T04:02:43.966Z,0
2017-09-07T04:03:44.015Z,0
2017-09-07T04:04:39.084Z,0
2017-09-07T04:05:33.157Z,0
2017-09-07T04:06:27.210Z,0
2017-09-07T04:07:27.151Z,0
2017-09-07T04:08:16.733Z,0
2017-09-07T04:09:11.455Z,0
2017-09-07T04:10:05.350Z,0
2017-09-07T04:11:05.366Z,0
2017-09-07T04:12:05.335Z,0
2017-09-07T04:13:00.334Z,0
2017-09-07T04:13:54.425Z,0
2017-09-07T04:14:54.471Z,0
2017-09-07T04:15:48.543Z,0
2017-09-07T04:16:37.549Z,4
2017-09-07T04:17:26.569Z,4
2017-09-07T04:18:15.650Z,4
2017-09-07T04:19:04.643Z,4
2017-09-07T04:19:58.635Z,0
2017-09-07T04:20:58.766Z,4
2017-09-07T04:21:46.750Z,4
2017-09-07T04:22:46.781Z,8
2017-09-07T04:23:46.834Z,4
2017-09-07T04:24:35.926Z,8
2017-09-07T04:25:24.391Z,8
2017-09-07T04:26:18.994Z,8
2017-09-07T04:27:19.961Z,12
2017-09-07T04:28:08.010Z,12
2017-09-07T04:29:02.081Z,12
2017-09-07T04:29:56.086Z,16
2017-09-07T04:30:44.157Z,16
2017-09-07T04:31:44.176Z,20
2017-09-07T04:32:44.225Z,20
2017-09-07T04:33:38.421Z,24
2017-09-07T04:34:26.271Z,32
2017-09-07T04:35:27.290Z,36
2017-09-07T04:36:15.364Z,44
2017-09-07T04:37:04.653Z,52
2017-09-07T04:37:59.441Z,64
2017-09-07T04:38:53.466Z,72
2017-09-07T04:39:42.509Z,84
2017-09-07T04:40:37.558Z,100
2017-09-07T04:41:31.559Z,108
2017-09-07T04:42:26.111Z,124
2017-09-07T04:43:20.664Z,140
2017-09-07T04:44:14.665Z,160
2017-09-07T04:45:08.723Z,176
2017-09-07T04:46:03.809Z,196
2017-09-07T04:46:58.813Z,220
2017-09-07T04:47:58.875Z,248
2017-09-07T04:48:53.868Z,272
2017-09-07T04:49:53.912Z,308
2017-09-07T04:50:42.929Z,332
2017-09-07T04:51:32.138Z,356
2017-09-07T04:52:20.036Z,384
2017-09-07T04:53:21.066Z,416
2017-09-07T04:54:15.436Z,440
2017-09-07T04:55:10.133Z,464
2017-09-07T04:56:04.160Z,492
2017-09-07T04:56:59.267Z,520
2017-09-07T04:58:00.259Z,552
2017-09-07T04:59:00.329Z,592
2017-09-07T05:00:00.315Z,640
2017-09-07T05:00:54.353Z,684
2017-09-07T05:01:54.331Z,732
2017-09-07T05:02:49.424Z,776
2017-09-07T05:03:44.448Z,832
2017-09-07T05:04:44.468Z,900
2017-09-07T05:05:44.568Z,960
2017-09-07T05:06:38.546Z,1016
2017-09-07T05:07:39.553Z,1080
2017-09-07T05:08:34.190Z,1132
2017-09-07T05:09:28.835Z,1196
2017-09-07T05:10:22.964Z,1252
2017-09-07T05:11:22.717Z,1312
2017-09-07T05:12:16.959Z,1380
2017-09-07T05:13:17.797Z,1436
2017-09-07T05:14:18.845Z,1476
2017-09-07T05:15:12.858Z,1520
2017-09-07T05:16:06.928Z,1568
2017-09-07T05:17:06.964Z,1636
2017-09-07T05:17:55.999Z,1676
2017-09-07T05:18:45.035Z,1760
2017-09-07T05:19:39.061Z,1848
2017-09-07T05:20:39.091Z,1964
2017-09-07T05:21:33.409Z,2036
2017-09-07T05:22:34.199Z,2068
2017-09-07T05:23:29.229Z,2076
2017-09-07T05:24:29.241Z,2060
2017-09-07T05:25:29.236Z,2016
2017-09-07T05:26:29.315Z,2000
2017-09-07T05:27:29.324Z,2012
2017-09-07T05:28:29.393Z,2012
2017-09-07T05:29:29.421Z,2016
2017-09-07T05:30:29.424Z,2048
2017-09-07T05:31:29.431Z,2232
2017-09-07T05:32:29.514Z,2512
2017-09-07T05:33:29.790Z,2768
2017-09-07T05:34:29.632Z,3032
2017-09-07T05:35:29.612Z,3240
2017-09-07T05:36:29.672Z,3404
2017-09-07T05:37:29.664Z,3444
2017-09-07T05:38:29.649Z,3360
2017-09-07T05:39:29.721Z,3172
2017-09-07T05:40:29.749Z,2924
2017-09-07T05:41:23.748Z,2736
2017-09-07T05:42:18.216Z,2580
2017-09-07T05:43:13.302Z,2452
2017-09-07T05:44:01.902Z,2388
2017-09-07T05:45:02.262Z,2468
2017-09-07T05:45:56.982Z,2536
2017-09-07T05:46:51.215Z,2572
2017-09-07T05:47:39.028Z,2584
2017-09-07T05:48:27.439Z,2592
2017-09-07T05:49:16.175Z,2588
2017-09-07T05:50:04.420Z,2584
2017-09-07T05:50:52.217Z,2592
2017-09-07T05:51:46.296Z,2720
2017-09-07T05:52:40.336Z,2844
2017-09-07T05:53:29.366Z,2932
2017-09-07T05:54:18.654Z,3044
2017-09-07T05:55:07.508Z,3088
2017-09-07T05:55:55.465Z,3112
2017-09-07T05:56:49.518Z,3208
2017-09-07T05:57:43.584Z,3368
2017-09-07T05:58:43.580Z,3580
2017-09-07T05:59:39.157Z,3824
2017-09-07T06:00:33.900Z,4156
2017-09-07T06:01:33.681Z,4532
2017-09-07T06:02:28.877Z,4968
2017-09-07T06:03:23.748Z,5520
2017-09-07T06:04:17.836Z,6264
2017-09-07T06:05:17.862Z,7184
2017-09-07T06:06:13.025Z,7868
2017-09-07T06:07:01.932Z,8128
2017-09-07T06:08:01.940Z,8188
2017-09-07T06:09:02.207Z,8216
2017-09-07T06:10:03.026Z,8456
2017-09-07T06:11:03.150Z,8820
2017-09-07T06:11:51.419Z,9020
2017-09-07T06:12:40.190Z,9296
2017-09-07T06:13:40.367Z,9480
2017-09-07T06:14:29.283Z,9568
2017-09-07T06:15:23.659Z,9472
2017-09-07T06:16:29.293Z,9248
2017-09-07T06:17:24.340Z,9068
2017-09-07T06:18:18.356Z,9172
2017-09-07T06:19:12.614Z,8668
2017-09-07T06:20:06.489Z,8472
2017-09-07T06:21:01.470Z,8224
2017-09-07T06:21:55.544Z,8024
2017-09-07T06:22:49.561Z,8008
2017-09-07T06:23:44.614Z,8264
2017-09-07T06:24:38.681Z,8876
2017-09-07T06:25:27.699Z,9164
2017-09-07T06:26:16.742Z,9456
2017-09-07T06:27:11.113Z,9856
2017-09-07T06:28:06.135Z,10312
2017-09-07T06:28:59.853Z,10816
2017-09-07T06:29:59.884Z,11176
2017-09-07T06:30:59.915Z,11448
2017-09-07T06:31:54.921Z,11540
2017-09-07T06:32:55.022Z,11476
2017-09-07T06:33:49.072Z,11224
2017-09-07T06:34:43.035Z,10888
2017-09-07T06:35:37.151Z,10644
2017-09-07T06:36:37.132Z,10408
2017-09-07T06:37:32.514Z,10248
2017-09-07T06:38:32.242Z,10328
2017-09-07T06:39:27.579Z,10872
2017-09-07T06:40:22.294Z,11620
2017-09-07T06:41:17.650Z,12268
2017-09-07T06:42:11.390Z,12444
2017-09-07T06:43:05.417Z,12372
2017-09-07T06:44:05.473Z,12240
2017-09-07T06:44:59.585Z,12460
2017-09-07T06:45:48.619Z,12460
2017-09-07T06:46:48.559Z,12308
2017-09-07T06:47:37.627Z,12112
2017-09-07T06:48:27.024Z,11832
2017-09-07T06:49:21.733Z,11788
2017-09-07T06:50:15.798Z,11984
2017-09-07T06:51:17.059Z,12260
2017-09-07T06:52:10.845Z,12400
2017-09-07T06:53:04.863Z,12788
2017-09-07T06:54:00.120Z,13020
2017-09-07T06:54:47.928Z,13284
2017-09-07T06:55:42.054Z,13456
2017-09-07T06:56:42.062Z,13832
2017-09-07T06:57:37.300Z,14284
2017-09-07T06:58:43.141Z,14564
2017-09-07T06:59:31.145Z,14696
2017-09-07T07:00:26.549Z,14716
2017-09-07T07:01:26.273Z,14504
2017-09-07T07:02:15.639Z,14064
2017-09-07T07:03:15.477Z,13412
2017-09-07T07:04:03.408Z,13012
2017-09-07T07:04:52.413Z,12756
2017-09-07T07:05:47.482Z,12488
2017-09-07T07:06:36.832Z,12496
2017-09-07T07:07:36.532Z,12856
2017-09-07T07:08:25.550Z,13316
2017-09-07T07:09:13.589Z,14020
2017-09-07T07:10:07.703Z,14296
2017-09-07T07:11:07.658Z,14016
2017-09-07T07:11:56.248Z,13676
2017-09-07T07:12:50.836Z,13356
2017-09-07T07:13:44.829Z,13156
2017-09-07T07:14:40.203Z,13284
2017-09-07T07:15:28.969Z,13648
2017-09-07T07:16:29.364Z,14544
2017-09-07T07:17:18.853Z,23872
2017-09-07T07:18:12.499Z,15132
2017-09-07T07:19:13.543Z,15188
2017-09-07T07:20:02.600Z,15348
2017-09-07T07:21:02.594Z,15812
2017-09-07T07:21:57.655Z,16608
2017-09-07T07:22:57.641Z,17824
2017-09-07T07:23:52.707Z,19136
2017-09-07T07:24:41.808Z,20448
2017-09-07T07:25:41.729Z,21920
2017-09-07T07:26:30.890Z,22240
2017-09-07T07:27:19.943Z,21760
2017-09-07T07:28:08.231Z,20864
2017-09-07T07:28:56.521Z,20416
2017-09-07T07:29:51.578Z,20864
2017-09-07T07:30:40.679Z,19936
2017-09-07T07:31:40.653Z,17024
2017-09-07T07:32:34.750Z,15692
2017-09-07T07:33:36.365Z,14636
2017-09-07T07:34:29.836Z,13828
2017-09-07T07:35:29.850Z,12976
2017-09-07T07:36:23.974Z,12512
2017-09-07T07:37:18.086Z,12300
2017-09-07T07:38:18.975Z,11988
2017-09-07T07:39:13.852Z,11736
2017-09-07T07:40:02.086Z,11416
2017-09-07T07:40:57.117Z,11256
2017-09-07T07:41:52.158Z,11804
2017-09-07T07:42:46.213Z,12848
2017-09-07T07:43:40.767Z,14088
2017-09-07T07:44:41.778Z,15820
2017-09-07T07:45:41.736Z,17600
2017-09-07T07:46:36.815Z,18624
2017-09-07T07:47:36.780Z,19008
2017-09-07T07:48:30.881Z,18688
2017-09-07T07:49:30.897Z,17504
2017-09-07T07:50:19.946Z,16544
2017-09-07T07:51:13.989Z,15552
2017-09-07T07:52:13.981Z,15468
2017-09-07T07:53:08.114Z,15876
2017-09-07T07:54:08.161Z,17152
2017-09-07T07:55:08.146Z,18592
2017-09-07T07:56:08.208Z,19808
2017-09-07T07:57:02.215Z,19520
2017-09-07T07:57:56.350Z,18048
2017-09-07T07:58:50.320Z,15644
2017-09-07T07:59:44.424Z,14044
2017-09-07T08:00:38.414Z,13208
2017-09-07T08:01:26.492Z,13080
2017-09-07T08:02:27.509Z,14000
2017-09-07T08:03:16.600Z,15092
2017-09-07T08:04:11.581Z,15920
2017-09-07T08:05:06.660Z,16384
2017-09-07T08:06:00.701Z,16160
2017-09-07T08:06:48.705Z,15712
2017-09-07T08:07:43.738Z,15516
2017-09-07T08:08:38.957Z,15196
2017-09-07T08:09:38.862Z,14724
2017-09-07T08:10:38.903Z,14676
2017-09-07T08:11:32.594Z,14700
2017-09-07T08:12:20.528Z,14740
2017-09-07T08:13:14.603Z,14816
2017-09-07T08:14:03.686Z,15400
2017-09-07T08:14:52.226Z,16260
2017-09-07T08:15:41.247Z,17088
2017-09-07T08:16:36.225Z,17760
2017-09-07T08:17:25.597Z,18656
2017-09-07T08:18:19.340Z,20416
2017-09-07T08:19:25.051Z,23552
2017-09-07T08:20:18.964Z,23488
2017-09-07T08:21:19.431Z,25600
2017-09-07T08:22:08.003Z,27360
2017-09-07T08:23:02.082Z,27712
2017-09-07T08:24:03.097Z,34016
2017-09-07T08:24:57.179Z,31648
2017-09-07T08:25:58.162Z,32800
2017-09-07T08:26:46.289Z,38080
2017-09-07T08:27:35.710Z,41088
2017-09-07T08:28:35.741Z,34528
2017-09-07T08:29:24.837Z,46400
2017-09-07T08:30:19.889Z,35744
2017-09-07T08:31:13.877Z,36224
2017-09-07T08:32:07.937Z,39616
2017-09-07T08:33:07.965Z,29952
2017-09-07T08:34:02.241Z,28736
2017-09-07T08:35:02.055Z,23712
2017-09-07T08:35:56.079Z,23360
2017-09-07T08:36:50.221Z,23168
2017-09-07T08:37:45.217Z,23168
2017-09-07T08:38:40.377Z,23392
2017-09-07T08:39:29.316Z,23808
2017-09-07T08:40:17.442Z,24768
2017-09-07T08:41:17.410Z,25824
2017-09-07T08:42:11.530Z,26720
2017-09-07T08:43:06.061Z,27328
2017-09-07T08:43:55.155Z,27456
2017-09-07T08:44:55.148Z,27232
2017-09-07T08:45:44.369Z,26656
2017-09-07T08:46:45.488Z,25184
2017-09-07T08:47:39.367Z,24608
2017-09-07T08:48:28.534Z,24800
2017-09-07T08:49:23.547Z,26080
2017-09-07T08:50:17.637Z,26848
2017-09-07T08:51:17.455Z,27200
2017-09-07T08:52:13.006Z,27648
2017-09-07T08:53:06.978Z,28928
2017-09-07T08:53:55.850Z,30496
2017-09-07T08:54:44.642Z,31840
2017-09-07T08:55:40.032Z,32576
2017-09-07T08:56:34.065Z,32640
2017-09-07T08:57:33.811Z,31616
2017-09-07T08:58:23.351Z,31456
2017-09-07T08:59:17.392Z,30560
2017-09-07T09:00:11.020Z,29632
2017-09-07T09:01:05.988Z,28480
2017-09-07T09:02:06.075Z,27520
2017-09-07T09:02:55.293Z,27872
2017-09-07T09:03:49.199Z,29152
2017-09-07T09:04:43.150Z,34272
2017-09-07T09:05:31.466Z,39872
2017-09-07T09:06:19.902Z,47072
2017-09-07T09:07:19.602Z,40736
2017-09-07T09:08:13.717Z,39712
2017-09-07T09:09:07.472Z,38016
2017-09-07T09:10:01.680Z,38240
2017-09-07T09:11:02.805Z,39808
2017-09-07T09:12:03.923Z,40512
2017-09-07T09:12:58.065Z,41152
2017-09-07T09:13:47.123Z,43648
2017-09-07T09:14:42.107Z,40096
2017-09-07T09:15:31.210Z,39968
2017-09-07T09:16:25.366Z,41856
2017-09-07T09:17:20.564Z,42624
2017-09-07T09:18:15.351Z,42304
2017-09-07T09:19:04.338Z,64416
2017-09-07T09:19:59.557Z,53344
2017-09-07T09:20:48.548Z,50656
2017-09-07T09:21:42.567Z,58784
2017-09-07T09:22:37.939Z,43584
2017-09-07T09:23:32.602Z,45024
2017-09-07T09:24:27.332Z,43648
2017-09-07T09:25:16.638Z,50080
2017-09-07T09:26:04.884Z,52416
2017-09-07T09:26:58.900Z,63808
2017-09-07T09:27:48.250Z,44416
2017-09-07T09:28:42.166Z,67616
2017-09-07T09:29:37.020Z,36544
2017-09-07T09:30:31.150Z,38624
2017-09-07T09:31:19.203Z,52192
2017-09-07T09:32:14.182Z,41280
2017-09-07T09:33:03.322Z,44096
2017-09-07T09:33:52.315Z,36736
2017-09-07T09:34:41.384Z,35552
2017-09-07T09:35:35.487Z,44288
2017-09-07T09:36:29.552Z,35904
2017-09-07T09:37:23.535Z,39232
2017-09-07T09:38:17.643Z,63904
2017-09-07T09:39:11.645Z,33920
2017-09-07T09:40:06.668Z,31616
2017-09-07T09:41:01.730Z,32576
2017-09-07T09:42:01.821Z,30464
2017-09-07T09:42:56.882Z,27616
2017-09-07T09:43:51.980Z,24288
2017-09-07T09:44:51.962Z,26144
2017-09-07T09:45:41.050Z,30240
2017-09-07T09:46:34.979Z,42912
2017-09-07T09:47:29.704Z,70560
2017-09-07T09:48:30.052Z,46624
2017-09-07T09:49:24.109Z,38624
2017-09-07T09:50:19.121Z,49792
2017-09-07T09:51:19.292Z,48448
2017-09-07T09:52:14.458Z,40800
2017-09-07T09:53:14.332Z,45952
2017-09-07T09:54:08.264Z,32832
2017-09-07T09:55:02.144Z,31232
2017-09-07T09:56:02.150Z,30112
2017-09-07T09:56:56.688Z,30528
2017-09-07T09:57:45.540Z,30688
2017-09-07T09:58:39.901Z,30912
2017-09-07T09:59:28.454Z,32928
2017-09-07T10:00:22.530Z,36896
2017-09-07T10:01:23.645Z,35392
2017-09-07T10:02:17.987Z,36352
2017-09-07T10:03:06.940Z,34112
2017-09-07T10:04:01.021Z,37408
2017-09-07T10:04:49.635Z,56608
2017-09-07T10:05:44.055Z,27616
2017-09-07T10:06:32.131Z,23168
2017-09-07T10:07:33.272Z,20320
2017-09-07T10:08:21.410Z,18784
2017-09-07T10:09:15.287Z,17504
2017-09-07T10:10:09.969Z,16224
2017-09-07T10:11:05.568Z,15120
2017-09-07T10:12:00.069Z,14380
2017-09-07T10:12:54.599Z,14396
2017-09-07T10:13:49.669Z,15376
2017-09-07T10:14:50.328Z,17728
2017-09-07T10:15:44.353Z,20128
2017-09-07T10:16:32.831Z,21856
2017-09-07T10:17:33.847Z,23840
2017-09-07T10:18:28.607Z,25248
2017-09-07T10:19:22.437Z,26144
2017-09-07T10:20:16.854Z,26400
2017-09-07T10:21:16.568Z,26688
2017-09-07T10:22:10.813Z,27136
2017-09-07T10:23:04.643Z,26176
2017-09-07T10:23:58.709Z,25408
2017-09-07T10:24:52.884Z,24384
2017-09-07T10:25:40.776Z,23616
2017-09-07T10:26:29.283Z,22752
2017-09-07T10:27:23.351Z,21376
2017-09-07T10:28:17.491Z,19456
2017-09-07T10:29:05.482Z,17152
2017-09-07T10:29:59.582Z,14268
2017-09-07T10:30:53.198Z,12092
2017-09-07T10:31:42.148Z,11220
2017-09-07T10:32:31.244Z,11168
2017-09-07T10:33:31.575Z,12192
2017-09-07T10:34:25.364Z,13248
2017-09-07T10:35:14.332Z,13900
2017-09-07T10:36:03.505Z,14084
2017-09-07T10:36:52.964Z,14216
2017-09-07T10:37:47.854Z,14520
2017-09-07T10:38:47.923Z,15104
2017-09-07T10:39:36.836Z,15548
2017-09-07T10:40:30.671Z,15948
2017-09-07T10:41:24.711Z,16384
2017-09-07T10:42:14.146Z,16416
2017-09-07T10:43:14.149Z,15768
2017-09-07T10:44:14.243Z,14832
2017-09-07T10:45:03.312Z,13572
2017-09-07T10:45:52.358Z,12408
2017-09-07T10:46:46.494Z,11496
2017-09-07T10:47:41.039Z,10852
2017-09-07T10:48:36.118Z,10548
2017-09-07T10:49:30.219Z,10552
2017-09-07T10:50:25.243Z,10336
2017-09-07T10:51:20.300Z,9572
2017-09-07T10:52:20.238Z,8656
2017-09-07T10:53:09.378Z,8992
2017-09-07T10:54:03.393Z,10144
2017-09-07T10:55:04.350Z,11304
2017-09-07T10:55:59.759Z,11744
2017-09-07T10:56:48.677Z,12340
2017-09-07T10:57:48.476Z,13176
2017-09-07T10:58:48.660Z,13492
2017-09-07T10:59:48.894Z,13328
2017-09-07T11:00:42.632Z,12992
2017-09-07T11:01:30.657Z,12880
2017-09-07T11:02:25.117Z,12988
2017-09-07T11:03:18.777Z,13440
2017-09-07T11:04:08.214Z,14184
2017-09-07T11:05:08.320Z,15200
2017-09-07T11:06:03.373Z,16384
2017-09-07T11:06:52.205Z,17248
2017-09-07T11:07:46.471Z,18496
2017-09-07T11:08:34.058Z,19424
2017-09-07T11:09:29.222Z,20736
2017-09-07T11:10:29.623Z,22016
2017-09-07T11:11:24.201Z,23520
2017-09-07T11:12:19.247Z,25152
2017-09-07T11:13:07.338Z,26624
2017-09-07T11:14:01.350Z,28256
2017-09-07T11:14:49.519Z,29536
2017-09-07T11:15:39.025Z,30336
2017-09-07T11:16:38.691Z,30720
2017-09-07T11:17:27.481Z,30272
2017-09-07T11:18:15.549Z,30336
2017-09-07T11:19:10.933Z,31072
2017-09-07T11:20:05.951Z,31872
2017-09-07T11:20:59.857Z,33696
2017-09-07T11:21:54.085Z,35648
2017-09-07T11:22:48.087Z,36640
2017-09-07T11:23:42.455Z,43520
2017-09-07T11:24:42.260Z,51360
2017-09-07T11:25:31.452Z,44096
2017-09-07T11:26:25.462Z,38400
2017-09-07T11:27:19.490Z,50080
2017-09-07T11:28:13.558Z,37408
2017-09-07T11:29:08.072Z,36960
2017-09-07T11:30:02.151Z,38016
2017-09-07T11:30:56.185Z,37632
2017-09-07T11:31:45.368Z,41888
2017-09-07T11:32:40.456Z,58560
2017-09-07T11:33:40.513Z,59072
2017-09-07T11:34:35.804Z,74400
2017-09-07T11:35:30.903Z,67296
2017-09-07T11:36:25.957Z,64992
2017-09-07T11:37:26.015Z,64992
2017-09-07T11:38:15.029Z,40320
2017-09-07T11:39:15.119Z,70080
2017-09-07T11:40:15.140Z,41984
2017-09-07T11:41:04.217Z,79616
2017-09-07T11:41:53.257Z,47904
2017-09-07T11:42:42.307Z,29024
2017-09-07T11:43:48.320Z,60896
2017-09-07T11:44:42.470Z,47872
2017-09-07T11:45:42.528Z,38400
2017-09-07T11:46:37.597Z,74112
2017-09-07T11:47:26.605Z,68800
2017-09-07T11:48:20.741Z,60352
2017-09-07T11:49:15.704Z,53888
2017-09-07T11:50:10.793Z,34976
2017-09-07T11:51:04.839Z,62720
2017-09-07T11:51:58.890Z,61984
2017-09-07T11:52:47.917Z,60608
2017-09-07T11:53:36.996Z,35264
2017-09-07T11:54:26.042Z,34432
2017-09-07T11:55:21.103Z,34912
2017-09-07T11:56:15.156Z,36576
2017-09-07T11:57:15.204Z,55424
2017-09-07T11:58:09.280Z,70112
2017-09-07T11:59:09.543Z,66272
2017-09-07T12:00:03.403Z,62400
2017-09-07T12:00:58.473Z,42976
2017-09-07T12:01:53.497Z,40512
2017-09-07T12:02:42.551Z,65408
2017-09-07T12:03:30.561Z,39168
2017-09-07T12:04:24.705Z,37056
2017-09-07T12:05:19.674Z,35424
2017-09-07T12:06:19.738Z,34304
2017-09-07T12:07:08.762Z,32864
2017-09-07T12:08:03.833Z,30848
2017-09-07T12:09:03.874Z,29280
2017-09-07T12:09:52.937Z,27872
2017-09-07T12:10:47.014Z,26016
2017-09-07T12:11:42.051Z,24352
2017-09-07T12:12:37.093Z,22432
2017-09-07T12:13:26.155Z,20800
2017-09-07T12:14:20.261Z,19328
2017-09-07T12:15:14.309Z,18016
2017-09-07T12:16:03.355Z,16896
2017-09-07T12:16:52.457Z,15728
2017-09-07T12:17:47.467Z,14896
2017-09-07T12:18:41.566Z,14148
2017-09-07T12:19:30.565Z,13768